sensor_id;sensor_type;location;lat;lon;timestamp;temperature;humidity
1455;DHT22;721;48.168;12.818;2022-12-07T00:01:16;3.40;54.30
1455;DHT22;721;48.168;12.818;2022-12-07T00:03:47;3.50;54.40
1455;DHT22;721;48.168;12.818;2022-12-07T00:06:15;3.60;51.60
1455;DHT22;721;48.168;12.818;2022-12-07T00:08:42;3.50;53.10
1455;DHT22;721;48.168;12.818;2022-12-07T00:11:11;3.40;53.80
1455;DHT22;721;48.168;12.818;2022-12-07T00:13:39;3.50;53.60
1455;DHT22;721;48.168;12.818;2022-12-07T00:16:08;3.50;53.80
1455;DHT22;721;48.168;12.818;2022-12-07T00:18:35;3.50;53.70
1455;DHT22;721;48.168;12.818;2022-12-07T00:21:05;3.50;55.00
1455;DHT22;721;48.168;12.818;2022-12-07T00:23:33;3.50;54.40
1455;DHT22;721;48.168;12.818;2022-12-07T00:26:05;3.40;54.30
1455;DHT22;721;48.168;12.818;2022-12-07T00:28:32;3.40;54.00
1455;DHT22;721;48.168;12.818;2022-12-07T00:31:04;3.40;55.20
1455;DHT22;721;48.168;12.818;2022-12-07T00:33:32;3.40;54.60
1455;DHT22;721;48.168;12.818;2022-12-07T00:35:59;3.50;55.10
1455;DHT22;721;48.168;12.818;2022-12-07T00:38:30;3.40;54.90
1455;DHT22;721;48.168;12.818;2022-12-07T00:40:59;3.40;54.30
1455;DHT22;721;48.168;12.818;2022-12-07T00:43:26;3.60;53.30
1455;DHT22;721;48.168;12.818;2022-12-07T00:45:53;3.40;54.30
1455;DHT22;721;48.168;12.818;2022-12-07T00:48:21;3.30;55.30
1455;DHT22;721;48.168;12.818;2022-12-07T00:50:51;3.30;54.70
1455;DHT22;721;48.168;12.818;2022-12-07T00:53:18;3.30;54.60
1455;DHT22;721;48.168;12.818;2022-12-07T00:55:46;3.30;55.50
1455;DHT22;721;48.168;12.818;2022-12-07T00:58:13;3.30;54.70
1455;DHT22;721;48.168;12.818;2022-12-07T01:00:41;3.40;54.30
1455;DHT22;721;48.168;12.818;2022-12-07T01:03:10;3.30;55.10
1455;DHT22;721;48.168;12.818;2022-12-07T01:05:49;3.40;53.10
1455;DHT22;721;48.168;12.818;2022-12-07T01:08:16;3.20;54.10
1455;DHT22;721;48.168;12.818;2022-12-07T01:10:43;3.20;54.10
1455;DHT22;721;48.168;12.818;2022-12-07T01:13:11;3.20;55.80
1455;DHT22;721;48.168;12.818;2022-12-07T01:15:39;3.30;54.80
1455;DHT22;721;48.168;12.818;2022-12-07T01:18:06;3.30;54.50
1455;DHT22;721;48.168;12.818;2022-12-07T01:20:33;3.30;53.80
1455;DHT22;721;48.168;12.818;2022-12-07T01:23:00;3.30;54.20
1455;DHT22;721;48.168;12.818;2022-12-07T01:25:27;3.20;53.40
1455;DHT22;721;48.168;12.818;2022-12-07T01:27:54;3.30;54.20
1455;DHT22;721;48.168;12.818;2022-12-07T01:30:22;3.30;53.20
1455;DHT22;721;48.168;12.818;2022-12-07T01:32:49;3.30;52.30
1455;DHT22;721;48.168;12.818;2022-12-07T01:35:16;3.30;52.40
1455;DHT22;721;48.168;12.818;2022-12-07T01:37:43;3.30;52.30
1455;DHT22;721;48.168;12.818;2022-12-07T01:40:11;3.40;51.20
1455;DHT22;721;48.168;12.818;2022-12-07T01:42:38;3.30;52.20
1455;DHT22;721;48.168;12.818;2022-12-07T01:45:36;3.30;50.60
1455;DHT22;721;48.168;12.818;2022-12-07T01:48:06;3.30;51.00
1455;DHT22;721;48.168;12.818;2022-12-07T01:50:35;3.30;51.60
1455;DHT22;721;48.168;12.818;2022-12-07T01:53:05;3.30;49.60
1455;DHT22;721;48.168;12.818;2022-12-07T01:55:38;3.40;50.10
1455;DHT22;721;48.168;12.818;2022-12-07T01:58:09;3.30;49.60
1455;DHT22;721;48.168;12.818;2022-12-07T02:00:39;3.20;50.30
1455;DHT22;721;48.168;12.818;2022-12-07T02:03:13;3.30;51.70
1455;DHT22;721;48.168;12.818;2022-12-07T02:05:41;3.30;48.90
1455;DHT22;721;48.168;12.818;2022-12-07T02:08:11;3.40;48.40
1455;DHT22;721;48.168;12.818;2022-12-07T02:10:38;3.40;48.30
1455;DHT22;721;48.168;12.818;2022-12-07T02:13:07;3.30;48.60
1455;DHT22;721;48.168;12.818;2022-12-07T02:15:49;3.20;48.70
1455;DHT22;721;48.168;12.818;2022-12-07T02:18:23;3.40;47.60
1455;DHT22;721;48.168;12.818;2022-12-07T02:20:57;3.30;47.00
1455;DHT22;721;48.168;12.818;2022-12-07T02:23:50;3.40;48.60
1455;DHT22;721;48.168;12.818;2022-12-07T02:26:55;3.30;47.60
1455;DHT22;721;48.168;12.818;2022-12-07T02:29:34;3.30;48.80
1455;DHT22;721;48.168;12.818;2022-12-07T02:32:06;3.20;50.40
1455;DHT22;721;48.168;12.818;2022-12-07T02:34:42;3.20;50.20
1455;DHT22;721;48.168;12.818;2022-12-07T02:37:19;3.20;51.00
1455;DHT22;721;48.168;12.818;2022-12-07T02:39:51;3.10;51.20
1455;DHT22;721;48.168;12.818;2022-12-07T02:42:24;3.20;50.70
1455;DHT22;721;48.168;12.818;2022-12-07T02:44:56;3.10;50.20
1455;DHT22;721;48.168;12.818;2022-12-07T02:47:25;3.20;50.70
1455;DHT22;721;48.168;12.818;2022-12-07T02:49:52;3.10;51.80
1455;DHT22;721;48.168;12.818;2022-12-07T02:52:19;3.10;50.80
1455;DHT22;721;48.168;12.818;2022-12-07T02:54:49;3.40;52.00
1455;DHT22;721;48.168;12.818;2022-12-07T02:57:32;3.10;51.80
1455;DHT22;721;48.168;12.818;2022-12-07T03:00:23;3.10;51.80
1455;DHT22;721;48.168;12.818;2022-12-07T03:03:00;3.00;52.60
1455;DHT22;721;48.168;12.818;2022-12-07T03:06:09;3.00;51.90
1455;DHT22;721;48.168;12.818;2022-12-07T03:08:48;3.00;52.00
1455;DHT22;721;48.168;12.818;2022-12-07T03:11:23;3.10;51.80
1455;DHT22;721;48.168;12.818;2022-12-07T03:13:55;3.00;52.60
1455;DHT22;721;48.168;12.818;2022-12-07T03:16:28;2.90;51.30
1455;DHT22;721;48.168;12.818;2022-12-07T03:19:00;3.00;51.70
1455;DHT22;721;48.168;12.818;2022-12-07T03:21:32;3.00;50.80
1455;DHT22;721;48.168;12.818;2022-12-07T03:24:04;3.00;51.50
1455;DHT22;721;48.168;12.818;2022-12-07T03:26:36;3.00;51.40
1455;DHT22;721;48.168;12.818;2022-12-07T03:29:07;3.00;51.10
1455;DHT22;721;48.168;12.818;2022-12-07T03:31:41;2.90;52.50
1455;DHT22;721;48.168;12.818;2022-12-07T03:34:15;2.90;52.10
1455;DHT22;721;48.168;12.818;2022-12-07T03:36:47;3.00;50.90
1455;DHT22;721;48.168;12.818;2022-12-07T03:39:22;3.10;51.30
1455;DHT22;721;48.168;12.818;2022-12-07T03:41:50;2.90;51.30
1455;DHT22;721;48.168;12.818;2022-12-07T03:44:18;2.90;52.20
1455;DHT22;721;48.168;12.818;2022-12-07T03:46:52;2.90;50.80
1455;DHT22;721;48.168;12.818;2022-12-07T03:49:24;2.90;51.40
1455;DHT22;721;48.168;12.818;2022-12-07T03:51:59;3.00;50.20
1455;DHT22;721;48.168;12.818;2022-12-07T03:54:32;2.90;50.00
1455;DHT22;721;48.168;12.818;2022-12-07T03:57:01;2.90;50.70
1455;DHT22;721;48.168;12.818;2022-12-07T03:59:30;3.00;50.10
1455;DHT22;721;48.168;12.818;2022-12-07T04:02:03;3.00;50.50
1455;DHT22;721;48.168;12.818;2022-12-07T04:04:31;3.00;49.40
1455;DHT22;721;48.168;12.818;2022-12-07T04:07:01;2.90;49.20
1455;DHT22;721;48.168;12.818;2022-12-07T04:09:28;2.90;49.60
1455;DHT22;721;48.168;12.818;2022-12-07T04:11:55;3.00;49.00
1455;DHT22;721;48.168;12.818;2022-12-07T04:14:22;2.90;49.20
1455;DHT22;721;48.168;12.818;2022-12-07T04:16:50;2.90;49.00
1455;DHT22;721;48.168;12.818;2022-12-07T04:19:20;2.90;48.70
1455;DHT22;721;48.168;12.818;2022-12-07T04:21:56;2.90;49.20
1455;DHT22;721;48.168;12.818;2022-12-07T04:24:24;2.80;49.20
1455;DHT22;721;48.168;12.818;2022-12-07T04:26:51;2.90;49.80
1455;DHT22;721;48.168;12.818;2022-12-07T04:29:18;3.00;48.30
1455;DHT22;721;48.168;12.818;2022-12-07T04:31:46;3.10;47.40
1455;DHT22;721;48.168;12.818;2022-12-07T04:34:13;3.10;45.70
1455;DHT22;721;48.168;12.818;2022-12-07T04:36:45;3.10;45.30
1455;DHT22;721;48.168;12.818;2022-12-07T04:39:19;3.20;44.20
1455;DHT22;721;48.168;12.818;2022-12-07T04:41:46;3.10;43.80
1455;DHT22;721;48.168;12.818;2022-12-07T04:44:14;3.10;44.10
1455;DHT22;721;48.168;12.818;2022-12-07T04:46:42;3.00;47.40
1455;DHT22;721;48.168;12.818;2022-12-07T04:49:11;3.30;45.00
1455;DHT22;721;48.168;12.818;2022-12-07T04:51:40;3.40;41.90
1455;DHT22;721;48.168;12.818;2022-12-07T04:54:08;3.10;43.90
1455;DHT22;721;48.168;12.818;2022-12-07T04:56:35;3.20;45.20
1455;DHT22;721;48.168;12.818;2022-12-07T04:59:03;3.20;44.20
1455;DHT22;721;48.168;12.818;2022-12-07T05:01:30;3.20;44.70
1455;DHT22;721;48.168;12.818;2022-12-07T05:03:57;3.30;44.30
1455;DHT22;721;48.168;12.818;2022-12-07T05:06:24;3.20;44.10
1455;DHT22;721;48.168;12.818;2022-12-07T05:08:51;3.50;42.10
1455;DHT22;721;48.168;12.818;2022-12-07T05:11:19;3.60;38.60
1455;DHT22;721;48.168;12.818;2022-12-07T05:14:11;3.50;39.90
1455;DHT22;721;48.168;12.818;2022-12-07T05:16:42;3.70;36.90
1455;DHT22;721;48.168;12.818;2022-12-07T05:19:10;3.70;37.40
1455;DHT22;721;48.168;12.818;2022-12-07T05:21:37;3.90;34.80
1455;DHT22;721;48.168;12.818;2022-12-07T05:24:05;3.70;37.70
1455;DHT22;721;48.168;12.818;2022-12-07T05:26:33;3.70;36.10
1455;DHT22;721;48.168;12.818;2022-12-07T05:29:00;3.50;39.00
1455;DHT22;721;48.168;12.818;2022-12-07T05:31:27;3.50;38.90
1455;DHT22;721;48.168;12.818;2022-12-07T05:33:54;3.40;40.60
1455;DHT22;721;48.168;12.818;2022-12-07T05:36:21;3.50;40.40
1455;DHT22;721;48.168;12.818;2022-12-07T05:38:48;3.40;40.30
1455;DHT22;721;48.168;12.818;2022-12-07T05:41:17;3.60;39.30
1455;DHT22;721;48.168;12.818;2022-12-07T05:44:04;3.40;40.70
1455;DHT22;721;48.168;12.818;2022-12-07T05:46:31;3.40;39.10
1455;DHT22;721;48.168;12.818;2022-12-07T05:48:58;3.40;39.60
1455;DHT22;721;48.168;12.818;2022-12-07T05:51:24;3.30;39.70
1455;DHT22;721;48.168;12.818;2022-12-07T05:53:51;3.30;40.80
1455;DHT22;721;48.168;12.818;2022-12-07T05:56:18;3.30;40.20
1455;DHT22;721;48.168;12.818;2022-12-07T05:58:45;3.30;39.70
1455;DHT22;721;48.168;12.818;2022-12-07T06:01:31;3.40;39.00
1455;DHT22;721;48.168;12.818;2022-12-07T06:03:58;3.50;39.10
1455;DHT22;721;48.168;12.818;2022-12-07T06:06:24;3.70;35.10
1455;DHT22;721;48.168;12.818;2022-12-07T06:08:51;3.60;37.00
1455;DHT22;721;48.168;12.818;2022-12-07T06:11:20;3.60;35.70
1455;DHT22;721;48.168;12.818;2022-12-07T06:14:04;3.60;36.40
1455;DHT22;721;48.168;12.818;2022-12-07T06:16:32;3.50;36.30
1455;DHT22;721;48.168;12.818;2022-12-07T06:18:59;3.60;35.70
1455;DHT22;721;48.168;12.818;2022-12-07T06:21:26;3.40;36.30
1455;DHT22;721;48.168;12.818;2022-12-07T06:23:53;3.50;36.90
1455;DHT22;721;48.168;12.818;2022-12-07T06:26:21;3.50;34.20
1455;DHT22;721;48.168;12.818;2022-12-07T06:28:48;3.50;36.40
1455;DHT22;721;48.168;12.818;2022-12-07T06:31:15;3.30;36.90
1455;DHT22;721;48.168;12.818;2022-12-07T06:33:50;3.50;35.60
1455;DHT22;721;48.168;12.818;2022-12-07T06:36:16;3.40;35.60
1455;DHT22;721;48.168;12.818;2022-12-07T06:38:43;3.40;36.30
1455;DHT22;721;48.168;12.818;2022-12-07T06:41:10;3.30;38.70
1455;DHT22;721;48.168;12.818;2022-12-07T06:43:37;3.40;37.80
1455;DHT22;721;48.168;12.818;2022-12-07T06:46:05;3.30;37.70
1455;DHT22;721;48.168;12.818;2022-12-07T06:48:32;3.00;38.00
1455;DHT22;721;48.168;12.818;2022-12-07T06:51:00;2.90;41.00
1455;DHT22;721;48.168;12.818;2022-12-07T06:53:30;3.00;42.50
1455;DHT22;721;48.168;12.818;2022-12-07T06:55:57;3.10;42.00
1455;DHT22;721;48.168;12.818;2022-12-07T06:58:24;3.00;42.20
1455;DHT22;721;48.168;12.818;2022-12-07T07:00:51;3.10;41.20
1455;DHT22;721;48.168;12.818;2022-12-07T07:03:18;3.10;41.10
1455;DHT22;721;48.168;12.818;2022-12-07T07:05:45;3.20;41.80
1455;DHT22;721;48.168;12.818;2022-12-07T07:08:13;3.30;40.20
1455;DHT22;721;48.168;12.818;2022-12-07T07:10:40;3.20;41.10
1455;DHT22;721;48.168;12.818;2022-12-07T07:16:22;3.30;40.00
1455;DHT22;721;48.168;12.818;2022-12-07T07:18:49;3.40;38.00
1455;DHT22;721;48.168;12.818;2022-12-07T07:21:16;3.40;35.60
1455;DHT22;721;48.168;12.818;2022-12-07T07:23:44;3.30;37.70
1455;DHT22;721;48.168;12.818;2022-12-07T07:26:13;3.20;38.20
1455;DHT22;721;48.168;12.818;2022-12-07T07:28:40;3.20;40.10
1455;DHT22;721;48.168;12.818;2022-12-07T07:31:06;3.10;39.50
1455;DHT22;721;48.168;12.818;2022-12-07T07:33:33;3.20;40.50
1455;DHT22;721;48.168;12.818;2022-12-07T07:36:03;3.20;38.90
1455;DHT22;721;48.168;12.818;2022-12-07T07:38:29;3.30;38.70
1455;DHT22;721;48.168;12.818;2022-12-07T07:40:58;3.40;37.40
1455;DHT22;721;48.168;12.818;2022-12-07T07:43:25;3.10;38.30
1455;DHT22;721;48.168;12.818;2022-12-07T07:45:52;3.10;37.30
1455;DHT22;721;48.168;12.818;2022-12-07T07:48:18;3.20;38.10
1455;DHT22;721;48.168;12.818;2022-12-07T07:50:48;3.00;37.80
1455;DHT22;721;48.168;12.818;2022-12-07T07:53:15;2.80;39.20
1455;DHT22;721;48.168;12.818;2022-12-07T07:55:51;2.80;41.60
1455;DHT22;721;48.168;12.818;2022-12-07T07:58:21;2.70;41.80
1455;DHT22;721;48.168;12.818;2022-12-07T08:00:48;2.90;42.70
1455;DHT22;721;48.168;12.818;2022-12-07T08:03:16;3.00;41.00
1455;DHT22;721;48.168;12.818;2022-12-07T08:05:43;3.00;40.00
1455;DHT22;721;48.168;12.818;2022-12-07T08:08:10;2.90;39.90
1455;DHT22;721;48.168;12.818;2022-12-07T08:10:36;3.00;40.20
1455;DHT22;721;48.168;12.818;2022-12-07T08:13:03;3.00;39.50
1455;DHT22;721;48.168;12.818;2022-12-07T08:15:42;3.10;40.00
1455;DHT22;721;48.168;12.818;2022-12-07T08:18:10;3.20;38.20
1455;DHT22;721;48.168;12.818;2022-12-07T08:20:38;3.40;36.80
1455;DHT22;721;48.168;12.818;2022-12-07T08:23:05;3.30;37.60
1455;DHT22;721;48.168;12.818;2022-12-07T08:25:33;3.40;37.30
1455;DHT22;721;48.168;12.818;2022-12-07T08:28:00;3.60;37.20
1455;DHT22;721;48.168;12.818;2022-12-07T08:30:27;3.50;37.90
1455;DHT22;721;48.168;12.818;2022-12-07T08:32:56;3.50;37.40
1455;DHT22;721;48.168;12.818;2022-12-07T08:35:24;3.60;36.70
1455;DHT22;721;48.168;12.818;2022-12-07T08:37:51;3.50;35.60
1455;DHT22;721;48.168;12.818;2022-12-07T08:40:18;3.30;36.30
1455;DHT22;721;48.168;12.818;2022-12-07T08:42:48;3.30;36.20
1455;DHT22;721;48.168;12.818;2022-12-07T08:45:17;3.40;35.00
1455;DHT22;721;48.168;12.818;2022-12-07T08:47:49;3.50;33.20
1455;DHT22;721;48.168;12.818;2022-12-07T08:50:18;3.30;31.60
1455;DHT22;721;48.168;12.818;2022-12-07T08:52:48;3.30;31.20
1455;DHT22;721;48.168;12.818;2022-12-07T08:55:16;3.30;31.70
1455;DHT22;721;48.168;12.818;2022-12-07T08:57:43;3.40;31.70
1455;DHT22;721;48.168;12.818;2022-12-07T09:00:11;3.50;31.90
1455;DHT22;721;48.168;12.818;2022-12-07T09:02:38;3.50;29.30
1455;DHT22;721;48.168;12.818;2022-12-07T09:05:05;3.70;29.70
1455;DHT22;721;48.168;12.818;2022-12-07T09:07:34;3.70;29.20
1455;DHT22;721;48.168;12.818;2022-12-07T09:10:01;3.80;29.20
1455;DHT22;721;48.168;12.818;2022-12-07T09:12:28;3.80;28.90
1455;DHT22;721;48.168;12.818;2022-12-07T09:14:54;3.80;28.30
1455;DHT22;721;48.168;12.818;2022-12-07T09:17:22;3.80;28.40
1455;DHT22;721;48.168;12.818;2022-12-07T09:19:48;3.80;27.30
1455;DHT22;721;48.168;12.818;2022-12-07T09:22:16;3.80;28.70
1455;DHT22;721;48.168;12.818;2022-12-07T09:24:44;3.50;28.10
1455;DHT22;721;48.168;12.818;2022-12-07T09:27:12;3.70;28.40
1455;DHT22;721;48.168;12.818;2022-12-07T09:29:39;3.60;28.00
1455;DHT22;721;48.168;12.818;2022-12-07T09:32:05;3.60;28.40
1455;DHT22;721;48.168;12.818;2022-12-07T09:34:34;3.80;28.80
1455;DHT22;721;48.168;12.818;2022-12-07T09:37:01;3.60;28.80
1455;DHT22;721;48.168;12.818;2022-12-07T09:39:29;3.60;29.40
1455;DHT22;721;48.168;12.818;2022-12-07T09:41:57;3.70;28.10
1455;DHT22;721;48.168;12.818;2022-12-07T09:44:26;3.60;30.00
1455;DHT22;721;48.168;12.818;2022-12-07T09:46:56;3.70;28.60
1455;DHT22;721;48.168;12.818;2022-12-07T09:49:27;3.70;30.40
1455;DHT22;721;48.168;12.818;2022-12-07T09:52:03;3.70;29.80
1455;DHT22;721;48.168;12.818;2022-12-07T09:54:46;3.70;28.80
1455;DHT22;721;48.168;12.818;2022-12-07T09:57:15;3.90;29.80
1455;DHT22;721;48.168;12.818;2022-12-07T09:59:42;3.80;26.70
1455;DHT22;721;48.168;12.818;2022-12-07T10:02:34;3.70;28.30
1455;DHT22;721;48.168;12.818;2022-12-07T10:05:01;3.70;28.10
1455;DHT22;721;48.168;12.818;2022-12-07T10:07:29;3.60;28.50
1455;DHT22;721;48.168;12.818;2022-12-07T10:09:56;3.60;29.30
1455;DHT22;721;48.168;12.818;2022-12-07T10:12:25;3.50;29.10
1455;DHT22;721;48.168;12.818;2022-12-07T10:14:57;3.60;29.60
1455;DHT22;721;48.168;12.818;2022-12-07T10:17:35;3.50;29.10
1455;DHT22;721;48.168;12.818;2022-12-07T10:20:24;3.50;29.10
1455;DHT22;721;48.168;12.818;2022-12-07T10:23:03;3.60;29.60
1455;DHT22;721;48.168;12.818;2022-12-07T10:25:33;3.70;28.90
1455;DHT22;721;48.168;12.818;2022-12-07T10:28:13;3.70;27.00
1455;DHT22;721;48.168;12.818;2022-12-07T10:30:54;3.90;26.80
1455;DHT22;721;48.168;12.818;2022-12-07T10:33:30;4.00;25.30
1455;DHT22;721;48.168;12.818;2022-12-07T10:36:09;4.00;25.00
1455;DHT22;721;48.168;12.818;2022-12-07T10:38:45;4.00;26.00
1455;DHT22;721;48.168;12.818;2022-12-07T10:41:12;3.90;26.70
1455;DHT22;721;48.168;12.818;2022-12-07T10:43:51;4.00;25.80
1455;DHT22;721;48.168;12.818;2022-12-07T10:46:52;4.20;25.00
1455;DHT22;721;48.168;12.818;2022-12-07T10:49:40;4.20;23.40
1455;DHT22;721;48.168;12.818;2022-12-07T10:52:18;4.10;20.70
1455;DHT22;721;48.168;12.818;2022-12-07T10:54:55;4.10;21.60
1455;DHT22;721;48.168;12.818;2022-12-07T10:57:39;4.00;23.10
1455;DHT22;721;48.168;12.818;2022-12-07T11:00:17;4.20;21.50
1455;DHT22;721;48.168;12.818;2022-12-07T11:02:57;4.20;22.70
1455;DHT22;721;48.168;12.818;2022-12-07T11:05:32;4.40;21.20
1455;DHT22;721;48.168;12.818;2022-12-07T11:08:12;4.40;20.00
1455;DHT22;721;48.168;12.818;2022-12-07T11:10:45;4.30;21.80
1455;DHT22;721;48.168;12.818;2022-12-07T11:13:25;4.40;21.70
1455;DHT22;721;48.168;12.818;2022-12-07T11:19:40;4.50;16.10
1455;DHT22;721;48.168;12.818;2022-12-07T11:22:19;4.60;18.30
1455;DHT22;721;48.168;12.818;2022-12-07T11:24:52;4.50;19.70
1455;DHT22;721;48.168;12.818;2022-12-07T11:27:28;4.50;20.50
1455;DHT22;721;48.168;12.818;2022-12-07T11:30:13;4.60;21.00
1455;DHT22;721;48.168;12.818;2022-12-07T11:32:53;4.60;19.80
1455;DHT22;721;48.168;12.818;2022-12-07T11:35:31;4.60;18.00
1455;DHT22;721;48.168;12.818;2022-12-07T11:38:03;4.50;16.60
1455;DHT22;721;48.168;12.818;2022-12-07T11:40:35;4.60;15.30
1455;DHT22;721;48.168;12.818;2022-12-07T11:43:09;4.50;13.90
1455;DHT22;721;48.168;12.818;2022-12-07T11:45:42;4.60;14.90
1455;DHT22;721;48.168;12.818;2022-12-07T11:48:14;4.50;13.10
1455;DHT22;721;48.168;12.818;2022-12-07T11:50:46;4.50;12.10
1455;DHT22;721;48.168;12.818;2022-12-07T11:53:17;4.50;12.00
1455;DHT22;721;48.168;12.818;2022-12-07T11:55:49;4.40;10.60
1455;DHT22;721;48.168;12.818;2022-12-07T11:58:35;4.40;11.20
1455;DHT22;721;48.168;12.818;2022-12-07T12:01:14;4.40;10.50
1455;DHT22;721;48.168;12.818;2022-12-07T12:03:44;4.50;9.70
1455;DHT22;721;48.168;12.818;2022-12-07T12:06:13;4.50;7.60
1455;DHT22;721;48.168;12.818;2022-12-07T12:08:43;4.40;8.40
1455;DHT22;721;48.168;12.818;2022-12-07T12:11:30;4.50;5.80
1455;DHT22;721;48.168;12.818;2022-12-07T12:14:16;4.50;4.50
1455;DHT22;721;48.168;12.818;2022-12-07T12:19:41;4.50;4.50
1455;DHT22;721;48.168;12.818;2022-12-07T12:22:14;4.70;5.70
1455;DHT22;721;48.168;12.818;2022-12-07T12:24:43;4.70;4.00
1455;DHT22;721;48.168;12.818;2022-12-07T12:27:23;4.60;5.00
1455;DHT22;721;48.168;12.818;2022-12-07T12:29:54;4.50;3.80
1455;DHT22;721;48.168;12.818;2022-12-07T12:32:32;4.50;5.10
1455;DHT22;721;48.168;12.818;2022-12-07T12:35:26;4.50;5.60
1455;DHT22;721;48.168;12.818;2022-12-07T12:37:55;4.70;5.30
1455;DHT22;721;48.168;12.818;2022-12-07T12:40:44;4.80;7.30
1455;DHT22;721;48.168;12.818;2022-12-07T12:43:48;5.00;4.70
1455;DHT22;721;48.168;12.818;2022-12-07T12:46:52;4.90;4.80
1455;DHT22;721;48.168;12.818;2022-12-07T12:49:43;4.90;6.70
1455;DHT22;721;48.168;12.818;2022-12-07T12:58:42;4.70;6.20
1455;DHT22;721;48.168;12.818;2022-12-07T13:01:44;4.70;7.70
1455;DHT22;721;48.168;12.818;2022-12-07T13:07:12;4.90;8.50
1455;DHT22;721;48.168;12.818;2022-12-07T13:09:43;4.90;8.80
1455;DHT22;721;48.168;12.818;2022-12-07T13:12:16;4.90;9.60
1455;DHT22;721;48.168;12.818;2022-12-07T13:14:54;4.80;9.50
1455;DHT22;721;48.168;12.818;2022-12-07T13:17:56;4.90;10.10
1455;DHT22;721;48.168;12.818;2022-12-07T13:20:49;5.00;8.90
1455;DHT22;721;48.168;12.818;2022-12-07T13:23:27;4.90;10.60
1455;DHT22;721;48.168;12.818;2022-12-07T13:26:16;4.80;11.10
1455;DHT22;721;48.168;12.818;2022-12-07T13:28:46;4.70;10.30
1455;DHT22;721;48.168;12.818;2022-12-07T13:31:20;4.70;10.80
1455;DHT22;721;48.168;12.818;2022-12-07T13:33:49;4.70;11.20
1455;DHT22;721;48.168;12.818;2022-12-07T13:36:20;4.70;12.10
1455;DHT22;721;48.168;12.818;2022-12-07T13:38:50;4.70;12.80
1455;DHT22;721;48.168;12.818;2022-12-07T13:41:20;4.80;12.10
1455;DHT22;721;48.168;12.818;2022-12-07T13:43:52;4.80;12.40
1455;DHT22;721;48.168;12.818;2022-12-07T13:46:25;4.80;12.70
1455;DHT22;721;48.168;12.818;2022-12-07T13:48:52;4.70;13.10
1455;DHT22;721;48.168;12.818;2022-12-07T13:51:23;4.70;13.80
1455;DHT22;721;48.168;12.818;2022-12-07T13:53:52;4.70;14.90
1455;DHT22;721;48.168;12.818;2022-12-07T13:56:22;4.70;14.90
1455;DHT22;721;48.168;12.818;2022-12-07T13:58:52;4.70;14.50
1455;DHT22;721;48.168;12.818;2022-12-07T14:01:19;4.60;12.90
1455;DHT22;721;48.168;12.818;2022-12-07T14:03:46;4.40;13.20
1455;DHT22;721;48.168;12.818;2022-12-07T14:06:16;4.30;13.10
1455;DHT22;721;48.168;12.818;2022-12-07T14:08:44;4.30;12.50
1455;DHT22;721;48.168;12.818;2022-12-07T14:11:17;4.40;12.20
1455;DHT22;721;48.168;12.818;2022-12-07T14:13:59;4.40;11.60
1455;DHT22;721;48.168;12.818;2022-12-07T14:16:29;4.40;11.60
1455;DHT22;721;48.168;12.818;2022-12-07T14:18:58;4.40;12.20
1455;DHT22;721;48.168;12.818;2022-12-07T14:21:27;4.40;11.90
1455;DHT22;721;48.168;12.818;2022-12-07T14:24:10;4.50;12.30
1455;DHT22;721;48.168;12.818;2022-12-07T14:26:38;4.60;11.80
1455;DHT22;721;48.168;12.818;2022-12-07T14:29:31;4.60;11.20
1455;DHT22;721;48.168;12.818;2022-12-07T14:32:15;4.60;11.80
1455;DHT22;721;48.168;12.818;2022-12-07T14:34:53;4.60;11.50
1455;DHT22;721;48.168;12.818;2022-12-07T14:37:24;4.70;10.60
1455;DHT22;721;48.168;12.818;2022-12-07T14:39:51;4.80;10.80
1455;DHT22;721;48.168;12.818;2022-12-07T14:42:18;4.70;11.20
1455;DHT22;721;48.168;12.818;2022-12-07T14:44:46;4.80;11.90
1455;DHT22;721;48.168;12.818;2022-12-07T14:47:13;4.90;10.10
1455;DHT22;721;48.168;12.818;2022-12-07T14:49:40;4.80;10.60
1455;DHT22;721;48.168;12.818;2022-12-07T14:52:11;4.80;10.70
1455;DHT22;721;48.168;12.818;2022-12-07T14:54:41;4.70;9.70
1455;DHT22;721;48.168;12.818;2022-12-07T14:57:09;4.70;10.50
1455;DHT22;721;48.168;12.818;2022-12-07T14:59:36;4.80;10.20
1455;DHT22;721;48.168;12.818;2022-12-07T15:02:19;4.70;9.70
1455;DHT22;721;48.168;12.818;2022-12-07T15:04:46;4.60;10.40
1455;DHT22;721;48.168;12.818;2022-12-07T15:07:23;4.70;11.00
1455;DHT22;721;48.168;12.818;2022-12-07T15:09:52;4.80;9.80
1455;DHT22;721;48.168;12.818;2022-12-07T15:12:19;4.80;9.00
1455;DHT22;721;48.168;12.818;2022-12-07T15:14:46;4.60;9.60
1455;DHT22;721;48.168;12.818;2022-12-07T15:17:13;4.90;9.20
1455;DHT22;721;48.168;12.818;2022-12-07T15:19:41;4.90;9.00
1455;DHT22;721;48.168;12.818;2022-12-07T15:22:08;4.80;9.10
1455;DHT22;721;48.168;12.818;2022-12-07T15:24:37;4.70;9.70
1455;DHT22;721;48.168;12.818;2022-12-07T15:27:04;4.60;10.60
1455;DHT22;721;48.168;12.818;2022-12-07T15:29:32;4.60;11.60
1455;DHT22;721;48.168;12.818;2022-12-07T15:31:59;4.80;11.00
1455;DHT22;721;48.168;12.818;2022-12-07T15:34:26;4.70;11.70
1455;DHT22;721;48.168;12.818;2022-12-07T15:36:55;4.90;10.60
1455;DHT22;721;48.168;12.818;2022-12-07T15:39:22;5.00;9.70
1455;DHT22;721;48.168;12.818;2022-12-07T15:41:49;5.00;9.60
1455;DHT22;721;48.168;12.818;2022-12-07T15:44:16;5.10;9.20
1455;DHT22;721;48.168;12.818;2022-12-07T15:47:00;5.10;8.50
1455;DHT22;721;48.168;12.818;2022-12-07T15:49:27;5.20;8.10
1455;DHT22;721;48.168;12.818;2022-12-07T15:51:56;5.20;8.00
1455;DHT22;721;48.168;12.818;2022-12-07T15:54:24;4.90;8.40
1455;DHT22;721;48.168;12.818;2022-12-07T15:56:52;4.60;9.90
1455;DHT22;721;48.168;12.818;2022-12-07T15:59:19;4.60;10.60
1455;DHT22;721;48.168;12.818;2022-12-07T16:01:45;4.50;11.40
1455;DHT22;721;48.168;12.818;2022-12-07T16:04:12;4.40;11.40
1455;DHT22;721;48.168;12.818;2022-12-07T16:06:40;4.10;12.80
1455;DHT22;721;48.168;12.818;2022-12-07T16:09:08;4.00;13.90
1455;DHT22;721;48.168;12.818;2022-12-07T16:11:35;3.90;14.40
1455;DHT22;721;48.168;12.818;2022-12-07T16:14:02;3.80;14.60
1455;DHT22;721;48.168;12.818;2022-12-07T16:16:29;3.70;15.20
1455;DHT22;721;48.168;12.818;2022-12-07T16:18:56;3.70;14.90
1455;DHT22;721;48.168;12.818;2022-12-07T16:21:23;3.60;15.40
1455;DHT22;721;48.168;12.818;2022-12-07T16:23:50;3.70;15.50
1455;DHT22;721;48.168;12.818;2022-12-07T16:26:20;3.60;16.40
1455;DHT22;721;48.168;12.818;2022-12-07T16:28:48;3.40;17.40
1455;DHT22;721;48.168;12.818;2022-12-07T16:31:17;3.20;18.80
1455;DHT22;721;48.168;12.818;2022-12-07T16:33:45;3.20;19.20
1455;DHT22;721;48.168;12.818;2022-12-07T16:36:13;3.20;19.30
1455;DHT22;721;48.168;12.818;2022-12-07T16:38:42;3.10;20.30
1455;DHT22;721;48.168;12.818;2022-12-07T16:41:12;3.00;22.20
1455;DHT22;721;48.168;12.818;2022-12-07T16:43:40;2.90;21.60
1455;DHT22;721;48.168;12.818;2022-12-07T16:46:07;2.90;21.80
1455;DHT22;721;48.168;12.818;2022-12-07T16:48:36;2.90;22.50
1455;DHT22;721;48.168;12.818;2022-12-07T16:51:05;2.90;22.90
1455;DHT22;721;48.168;12.818;2022-12-07T16:53:34;2.80;23.10
1455;DHT22;721;48.168;12.818;2022-12-07T16:56:02;2.80;23.80
1455;DHT22;721;48.168;12.818;2022-12-07T16:58:35;2.80;24.60
1455;DHT22;721;48.168;12.818;2022-12-07T17:01:19;2.80;23.50
1455;DHT22;721;48.168;12.818;2022-12-07T17:03:47;2.80;24.20
1455;DHT22;721;48.168;12.818;2022-12-07T17:06:15;3.00;23.00